Time;durP1;ratioP1;P1;durP2;ratioP2;P2;SDS_P1;SDS_P2;PMS_P1;PMS_P2;Temp;Humidity;BMP_temperature;BMP_pressure;BME280_temperature;BME280_humidity;BME280_pressure;Samples;Min_cycle;Max_cycle;Signal;HPM_P1;HPM_P2
2024/02/29 00:00:13;;;;;;;31.30;20.80;;;;;;;4.45;100.00;152504.97;5094917;28;20468;-88
2024/02/29 00:02:40;;;;;;;33.03;21.13;;;;;;;4.42;100.00;152497.25;5103979;27;20846;-88
2024/02/29 00:05:11;;;;;;;32.93;20.60;;;;;;;4.41;100.00;152494.66;5083241;28;20463;-88
2024/02/29 00:07:38;;;;;;;31.93;19.40;;;;;;;4.40;100.00;152493.34;5122725;27;21131;-89
2024/02/29 00:10:07;;;;;;;34.97;20.20;;;;;;;4.45;100.00;152506.22;5089822;28;20468;-88
2024/02/29 00:12:36;;;;;;;32.77;20.73;;;;;;;4.44;100.00;152503.69;5091522;28;20448;-88
2024/02/29 00:15:03;;;;;;;33.10;22.00;;;;;;;4.42;100.00;152497.25;5085171;28;20452;-89
2024/02/29 00:17:31;;;;;;;35.90;23.17;;;;;;;4.40;100.00;152492.06;5130116;27;20452;-88
2024/02/29 00:19:57;;;;;;;35.60;23.03;;;;;;;4.40;100.00;152492.06;5108545;28;20540;-88
2024/02/29 00:22:24;;;;;;;37.67;21.80;;;;;;;4.35;100.00;152480.47;5108885;28;20516;-89
2024/02/29 00:24:51;;;;;;;34.70;22.53;;;;;;;4.29;100.00;152465.00;5089250;28;20468;-88
2024/02/29 00:27:18;;;;;;;33.23;22.97;;;;;;;4.28;100.00;152463.75;5089592;28;20501;-88
2024/02/29 00:29:45;;;;;;;36.37;22.57;;;;;;;4.30;100.00;152468.91;5091765;28;20475;-89
2024/02/29 00:32:11;;;;;;;35.67;23.40;;;;;;;4.30;100.00;152467.59;5109611;28;20465;-88
2024/02/29 00:34:38;;;;;;;34.03;21.67;;;;;;;4.26;100.00;152457.31;5087604;28;20463;-88
2024/02/29 00:37:05;;;;;;;38.60;24.37;;;;;;;4.23;100.00;152449.59;5096611;28;20440;-88
2024/02/29 00:39:31;;;;;;;30.23;22.57;;;;;;;4.26;100.00;152457.31;5101580;28;20452;-88
2024/02/29 00:41:58;;;;;;;36.50;22.30;;;;;;;4.23;100.00;152450.88;5093510;28;20459;-88
2024/02/29 00:44:26;;;;;;;32.80;20.07;;;;;;;4.22;100.00;152447.00;5095677;28;20460;-88
2024/02/29 00:46:52;;;;;;;35.10;23.07;;;;;;;4.22;100.00;152448.28;5096924;28;20456;-88
2024/02/29 00:49:19;;;;;;;37.80;22.63;;;;;;;4.13;100.00;152423.84;5105992;28;20432;-88
2024/02/29 00:51:46;;;;;;;33.50;21.33;;;;;;;4.12;100.00;152422.53;5113931;27;20483;-88
2024/02/29 00:54:12;;;;;;;33.77;22.27;;;;;;;4.11;100.00;152419.94;5080928;28;20457;-89
2024/02/29 00:56:39;;;;;;;32.70;21.33;;;;;;;4.10;100.00;152416.09;5098387;28;20437;-88
2024/02/29 00:59:05;;;;;;;40.13;22.10;;;;;;;4.00;100.00;152391.59;5096090;27;20450;-88
2024/02/29 01:01:33;;;;;;;34.10;21.37;;;;;;;3.89;100.00;152363.25;5098298;28;20451;-88
2024/02/29 01:04:00;;;;;;;34.47;19.97;;;;;;;3.86;100.00;152355.56;5136591;27;20444;-88
2024/02/29 01:06:26;;;;;;;34.20;22.60;;;;;;;3.85;100.00;152353.00;5118112;27;20452;-88
2024/02/29 01:08:53;;;;;;;35.67;22.73;;;;;;;3.80;100.00;152338.81;5146533;27;20939;-88
2024/02/29 01:11:20;;;;;;;34.87;22.60;;;;;;;3.79;100.00;152336.22;5140478;27;20467;-88
2024/02/29 01:13:47;;;;;;;33.87;21.93;;;;;;;3.77;100.00;152332.38;5113505;27;20642;-88
2024/02/29 01:16:14;;;;;;;33.13;22.47;;;;;;;3.72;100.00;152319.50;5097145;28;20934;-88
2024/02/29 01:18:42;;;;;;;35.07;20.83;;;;;;;3.67;100.00;152307.94;5117469;27;20456;-89
2024/02/29 01:21:09;;;;;;;38.53;24.20;;;;;;;3.65;100.00;152302.75;5130347;27;20431;-88
2024/02/29 01:23:36;;;;;;;34.97;21.77;;;;;;;3.61;100.00;152291.19;5111113;27;20946;-88
2024/02/29 01:26:03;;;;;;;32.40;22.97;;;;;;;3.61;100.00;152291.19;5117007;27;20443;-89
2024/02/29 01:28:30;;;;;;;36.83;21.57;;;;;;;3.63;100.00;152297.63;5136483;27;20786;-88
2024/02/29 01:30:57;;;;;;;36.77;22.70;;;;;;;3.63;100.00;152297.63;5094365;28;20508;-89
2024/02/29 01:33:23;;;;;;;36.27;22.07;;;;;;;3.59;100.00;152287.34;5115988;27;20456;-89
2024/02/29 01:35:51;;;;;;;32.50;21.73;;;;;;;3.56;100.00;152279.63;5120713;27;20447;-89
2024/02/29 01:38:18;;;;;;;32.93;22.07;;;;;;;3.54;100.00;152274.47;5113056;27;20955;-89
2024/02/29 01:40:45;;;;;;;38.00;24.10;;;;;;;3.50;100.00;152262.84;5131621;27;20431;-89
2024/02/29 01:43:12;;;;;;;35.83;21.67;;;;;;;3.43;100.00;152244.84;5121274;27;20468;-89
2024/02/29 01:45:38;;;;;;;31.57;20.87;;;;;;;3.38;100.00;152232.00;5120638;27;20443;-89
2024/02/29 01:48:06;;;;;;;36.67;21.87;;;;;;;3.33;100.00;152219.13;5113109;27;20463;-89
2024/02/29 01:50:33;;;;;;;31.57;19.97;;;;;;;3.26;100.00;152202.38;5111845;28;20476;-89
2024/02/29 01:53:01;;;;;;;37.00;21.93;;;;;;;3.20;100.00;152186.97;5109641;28;20970;-89
2024/02/29 01:55:27;;;;;;;36.63;21.77;;;;;;;3.23;100.00;152194.63;5083000;28;20436;-89
2024/02/29 01:57:54;;;;;;;35.03;22.53;;;;;;;3.26;100.00;152202.38;5111355;28;20452;-89
2024/02/29 02:00:21;;;;;;;30.40;21.20;;;;;;;3.24;100.00;152195.94;5107691;27;20460;-88
2024/02/29 02:02:47;;;;;;;41.60;23.00;;;;;;;3.23;100.00;152194.63;5092886;28;20461;-89
2024/02/29 02:05:14;;;;;;;30.77;21.17;;;;;;;3.14;100.00;152170.22;5104807;27;20448;-89
2024/02/29 02:07:44;;;;;;;40.70;24.23;;;;;;;3.13;100.00;152168.91;5132924;27;20472;-89
2024/02/29 02:10:11;;;;;;;39.50;23.80;;;;;;;3.08;100.00;152156.06;5111115;28;20514;-89
2024/02/29 02:12:38;;;;;;;34.77;20.90;;;;;;;3.02;100.00;152141.91;5125594;27;20556;-89
2024/02/29 02:15:06;;;;;;;36.70;20.20;;;;;;;3.04;100.00;152145.78;5099150;28;20432;-89
2024/02/29 02:17:32;;;;;;;37.20;21.17;;;;;;;3.02;100.00;152141.91;5092870;28;20777;-89
2024/02/29 02:19:59;;;;;;;43.47;22.47;;;;;;;2.98;100.00;152130.31;5104916;28;21324;-89
2024/02/29 02:22:28;;;;;;;36.13;20.40;;;;;;;2.94;100.00;152120.00;5111428;28;20452;-89
2024/02/29 02:24:54;;;;;;;33.50;20.43;;;;;;;2.89;100.00;152107.16;5111936;27;20482;-88
2024/02/29 02:27:21;;;;;;;33.77;20.00;;;;;;;2.91;100.00;152112.34;5139750;27;20939;-89
2024/02/29 02:29:48;;;;;;;34.90;21.50;;;;;;;2.94;100.00;152120.00;5108370;27;20547;-88
2024/02/29 02:32:14;;;;;;;36.87;23.30;;;;;;;2.96;100.00;152126.50;5130939;27;20453;-88
2024/02/29 02:34:41;;;;;;;34.87;21.03;;;;;;;2.96;100.00;152125.19;5128549;27;20448;-88
2024/02/29 02:37:07;;;;;;;36.53;21.13;;;;;;;3.02;100.00;152140.59;5109865;28;20436;-88
2024/02/29 02:39:35;;;;;;;37.80;22.30;;;;;;;3.04;100.00;152145.78;5099773;28;20440;-88
2024/02/29 02:42:02;;;;;;;36.93;22.60;;;;;;;3.03;100.00;152143.19;5082836;27;20844;-88
2024/02/29 02:44:28;;;;;;;39.13;22.80;;;;;;;3.04;100.00;152145.78;5114975;27;20466;-87
2024/02/29 02:46:55;;;;;;;35.90;20.27;;;;;;;3.02;100.00;152140.59;5085334;28;20510;-88
2024/02/29 02:49:21;;;;;;;34.20;20.00;;;;;;;2.96;100.00;152126.50;5082198;28;20436;-88
2024/02/29 02:51:48;;;;;;;33.60;20.53;;;;;;;2.97;100.00;152127.75;5096774;28;20491;-78
2024/02/29 02:54:15;;;;;;;35.37;20.60;;;;;;;2.96;100.00;152126.50;5100773;27;20470;-78
2024/02/29 02:56:42;;;;;;;34.10;20.87;;;;;;;2.94;100.00;152120.00;5106232;28;20819;-78
2024/02/29 02:59:09;;;;;;;38.77;21.80;;;;;;;2.92;100.00;152114.88;5103633;28;20497;-78
2024/02/29 03:01:36;;;;;;;36.37;21.03;;;;;;;2.92;100.00;152114.88;5102379;27;20495;-78
2024/02/29 03:04:04;;;;;;;38.07;20.60;;;;;;;2.91;100.00;152112.34;5103989;27;20444;-78
2024/02/29 03:06:30;;;;;;;32.17;19.90;;;;;;;2.90;100.00;152111.03;5101118;28;20467;-78
2024/02/29 03:08:57;;;;;;;34.60;20.50;;;;;;;2.87;100.00;152102.00;5084867;28;20456;-78
2024/02/29 03:11:23;;;;;;;40.17;20.70;;;;;;;2.87;100.00;152102.00;5091452;28;20849;-78
2024/02/29 03:13:51;;;;;;;35.00;20.67;;;;;;;2.88;100.00;152104.59;5094294;28;20427;-78
2024/02/29 03:16:22;;;;;;;32.50;18.50;;;;;;;2.87;100.00;152102.00;5099740;28;20528;-78
2024/02/29 03:18:49;;;;;;;32.70;20.60;;;;;;;2.87;100.00;152102.00;5104258;27;21196;-78
2024/02/29 03:21:16;;;;;;;36.40;20.37;;;;;;;2.89;100.00;152107.16;5106931;27;20452;-78
2024/02/29 03:23:42;;;;;;;34.80;20.43;;;;;;;2.88;100.00;152104.59;5098458;28;20467;-78
2024/02/29 03:26:09;;;;;;;34.30;20.87;;;;;;;2.85;100.00;152096.88;5090519;27;20456;-78
2024/02/29 03:28:35;;;;;;;30.87;19.13;;;;;;;2.86;100.00;152100.72;5106857;27;20496;-78
2024/02/29 03:31:03;;;;;;;38.43;22.03;;;;;;;2.84;100.00;152094.28;5108821;27;20467;-78
2024/02/29 03:33:30;;;;;;;34.40;19.87;;;;;;;2.82;100.00;152089.16;5100324;28;20954;-78
2024/02/29 03:35:57;;;;;;;29.57;19.23;;;;;;;2.83;100.00;152093.00;5107229;28;20444;-79
2024/02/29 03:38:23;;;;;;;31.27;20.20;;;;;;;2.83;100.00;152093.00;5110764;27;20456;-78
2024/02/29 03:40:51;;;;;;;35.37;22.20;;;;;;;2.82;100.00;152090.44;5098027;28;20432;-79
2024/02/29 03:43:18;;;;;;;33.20;21.17;;;;;;;2.78;100.00;152080.13;5098362;27;20468;-79
2024/02/29 03:45:45;;;;;;;39.20;22.17;;;;;;;2.78;100.00;152078.88;5104558;27;20818;-78
2024/02/29 03:48:12;;;;;;;35.57;20.27;;;;;;;2.77;100.00;152077.59;5105297;27;20445;-78
2024/02/29 03:50:39;;;;;;;36.63;20.67;;;;;;;2.79;100.00;152081.44;5105028;28;20468;-79
2024/02/29 03:53:06;;;;;;;33.47;20.90;;;;;;;2.78;100.00;152078.88;5099246;28;20450;-79
2024/02/29 03:55:32;;;;;;;37.67;21.87;;;;;;;2.78;100.00;152078.88;5102142;27;20458;-78
2024/02/29 03:57:59;;;;;;;34.17;20.50;;;;;;;2.74;100.00;152068.56;5107029;27;20455;-79
2024/02/29 04:00:25;;;;;;;35.60;21.90;;;;;;;2.69;100.00;152055.72;5097060;28;20862;-79
2024/02/29 04:02:52;;;;;;;32.60;20.30;;;;;;;2.68;100.00;152053.13;5093153;28;20542;-79
2024/02/29 04:05:24;;;;;;;36.50;21.10;;;;;;;2.70;100.00;152058.31;5104205;27;20467;-79
2024/02/29 04:07:50;;;;;;;35.97;21.80;;;;;;;2.67;100.00;152051.88;5109540;27;20494;-79
2024/02/29 04:10:17;;;;;;;38.03;21.37;;;;;;;2.64;100.00;152042.84;5102273;28;20482;-79
2024/02/29 04:12:44;;;;;;;35.30;20.80;;;;;;;2.62;100.00;152038.97;5133193;27;20462;-79
2024/02/29 04:15:10;;;;;;;34.23;20.50;;;;;;;2.55;100.00;152019.69;5104513;28;20448;-79
2024/02/29 04:17:37;;;;;;;36.07;20.87;;;;;;;2.51;100.00;152009.41;5108633;28;20437;-79
2024/02/29 04:20:05;;;;;;;34.73;19.20;;;;;;;2.45;100.00;151996.56;5101258;28;20439;-79
2024/02/29 04:22:33;;;;;;;33.73;19.60;;;;;;;2.40;100.00;151982.41;5093491;28;20443;-79
2024/02/29 04:25:00;;;;;;;30.40;17.60;;;;;;;2.31;100.00;151960.53;5105863;28;20443;-78
2024/02/29 04:27:26;;;;;;;31.83;20.17;;;;;;;2.27;100.00;151948.97;5109606;28;20543;-79
2024/02/29 04:29:53;;;;;;;24.83;17.77;;;;;;;2.27;100.00;151948.97;5096480;28;20428;-79
2024/02/29 04:32:20;;;;;;;29.13;18.30;;;;;;;2.26;100.00;151947.69;5070980;28;20504;-78
2024/02/29 04:35:20;;;;;;;31.70;18.70;;;;;;;2.20;100.00;151932.25;5109854;28;20505;-78
2024/02/29 04:37:48;;;;;;;31.57;18.30;;;;;;;2.12;100.00;151911.69;5056803;28;20451;-78
2024/02/29 04:40:15;;;;;;;31.40;17.30;;;;;;;2.08;100.00;151901.41;5079490;28;20445;-78
2024/02/29 04:42:41;;;;;;;30.13;18.67;;;;;;;2.07;100.00;151897.53;5076825;28;20460;-78
2024/02/29 04:45:09;;;;;;;28.37;18.10;;;;;;;2.03;100.00;151888.56;5107702;28;20447;-78
2024/02/29 04:47:36;;;;;;;28.53;17.70;;;;;;;1.97;100.00;151873.13;5097859;28;20536;-78
2024/02/29 04:50:04;;;;;;;28.33;18.57;;;;;;;1.94;100.00;151864.09;5104412;28;20442;-78
2024/02/29 04:52:31;;;;;;;30.17;17.97;;;;;;;1.92;100.00;151858.97;5100167;28;20477;-78
2024/02/29 04:54:59;;;;;;;30.00;19.07;;;;;;;1.92;100.00;151860.28;5095534;28;20512;-77
2024/02/29 04:57:26;;;;;;;31.33;19.53;;;;;;;1.94;100.00;151865.41;5085576;28;20453;-77
2024/02/29 04:59:52;;;;;;;34.20;19.73;;;;;;;1.95;100.00;151868.00;5099796;28;20535;-77
2024/02/29 05:02:19;;;;;;;34.40;18.07;;;;;;;1.94;100.00;151864.09;5128832;27;20452;-78
2024/02/29 05:04:45;;;;;;;30.67;19.23;;;;;;;1.97;100.00;151873.13;5096061;28;20445;-77
2024/02/29 05:07:12;;;;;;;36.47;19.80;;;;;;;1.97;100.00;151873.13;5095718;28;20529;-77
2024/02/29 05:09:39;;;;;;;33.37;20.03;;;;;;;1.98;100.00;151875.72;5093615;28;20448;-77
2024/02/29 05:12:07;;;;;;;29.70;18.43;;;;;;;1.96;100.00;151869.28;5103732;28;20581;-77
2024/02/29 05:14:34;;;;;;;36.67;20.10;;;;;;;1.95;100.00;151868.00;5089579;27;20441;-77
2024/02/29 05:17:00;;;;;;;32.20;19.13;;;;;;;1.91;100.00;151857.69;5103491;27;20452;-77
2024/02/29 05:19:27;;;;;;;34.13;18.60;;;;;;;1.85;100.00;151843.53;5111152;28;20443;-78
2024/02/29 05:21:55;;;;;;;34.07;19.07;;;;;;;1.89;100.00;151851.25;5105818;27;20458;-78
2024/02/29 05:24:21;;;;;;;35.80;19.90;;;;;;;1.90;100.00;151855.16;5102644;28;20453;-77
2024/02/29 05:26:49;;;;;;;33.93;20.17;;;;;;;1.93;100.00;151862.88;5106924;27;20875;-78
2024/02/29 05:29:17;;;;;;;34.13;19.30;;;;;;;1.92;100.00;151860.28;5108571;27;20431;-77
2024/02/29 05:31:49;;;;;;;35.10;20.60;;;;;;;1.94;100.00;151864.09;5085598;28;20471;-78
2024/02/29 05:34:16;;;;;;;31.67;18.90;;;;;;;1.93;100.00;151862.88;5115681;27;20463;-78
2024/02/29 05:36:42;;;;;;;33.33;20.57;;;;;;;1.94;100.00;151865.41;5105387;27;20455;-78
2024/02/29 05:39:11;;;;;;;31.40;20.53;;;;;;;1.98;100.00;151874.41;5110210;28;20483;-78
2024/02/29 05:41:37;;;;;;;29.20;17.73;;;;;;;1.97;100.00;151873.13;5089272;28;20600;-78
2024/02/29 05:44:04;;;;;;;33.07;20.03;;;;;;;1.95;100.00;151866.69;5094347;27;20465;-78
2024/02/29 05:46:31;;;;;;;31.50;18.93;;;;;;;1.94;100.00;151865.41;5104837;27;20980;-78
2024/02/29 05:48:58;;;;;;;32.47;20.07;;;;;;;1.91;100.00;151856.44;5102571;27;20478;-78
2024/02/29 05:51:25;;;;;;;35.77;20.13;;;;;;;1.92;100.00;151858.97;5106056;27;20464;-78
2024/02/29 05:53:52;;;;;;;31.90;16.53;;;;;;;1.90;100.00;151855.16;5136593;27;20483;-78
2024/02/29 05:56:18;;;;;;;28.37;18.63;;;;;;;1.85;100.00;151842.28;5101003;28;20455;-78
2024/02/29 05:58:45;;;;;;;31.63;18.40;;;;;;;1.83;100.00;151838.41;5094346;28;20550;-78
2024/02/29 06:01:11;;;;;;;31.50;19.00;;;;;;;1.84;100.00;151839.72;5131115;27;20441;-78
2024/02/29 06:03:39;;;;;;;29.57;18.73;;;;;;;1.85;100.00;151842.28;5098486;27;20452;-78
2024/02/29 06:06:06;;;;;;;37.03;19.30;;;;;;;1.83;100.00;151837.13;5092822;27;20797;-77
2024/02/29 06:08:32;;;;;;;34.93;20.97;;;;;;;1.79;100.00;151828.16;5095383;28;20484;-78
2024/02/29 06:10:59;;;;;;;34.30;19.47;;;;;;;1.83;100.00;151837.13;5095738;27;20436;-78
2024/02/29 06:13:27;;;;;;;38.23;20.53;;;;;;;1.83;100.00;151837.13;5095042;28;22107;-77
2024/02/29 06:15:53;;;;;;;32.90;19.93;;;;;;;1.85;100.00;151842.28;5099061;28;20675;-78
2024/02/29 06:18:20;;;;;;;30.80;19.47;;;;;;;1.84;100.00;151839.72;5097402;28;20456;-78
2024/02/29 06:20:48;;;;;;;30.10;19.90;;;;;;;1.83;100.00;151837.13;5078772;28;20835;-78
2024/02/29 06:23:14;;;;;;;33.50;20.50;;;;;;;1.85;100.00;151842.28;5095370;27;20468;-78
2024/02/29 06:25:42;;;;;;;33.63;17.83;;;;;;;1.84;100.00;151839.72;5079112;28;20492;-78
2024/02/29 06:28:08;;;;;;;31.47;20.23;;;;;;;1.87;100.00;151847.41;5100052;27;21060;-78
2024/02/29 06:30:35;;;;;;;34.20;20.10;;;;;;;1.91;100.00;151856.44;5097020;28;20828;-78
2024/02/29 06:33:02;;;;;;;37.33;20.93;;;;;;;1.94;100.00;151865.41;5079962;27;20483;-77
2024/02/29 06:35:28;;;;;;;31.77;18.87;;;;;;;2.01;100.00;151883.44;5097859;28;21116;-77
2024/02/29 06:37:56;;;;;;;39.50;20.90;;;;;;;2.09;100.00;151903.94;5095897;28;20934;-77
2024/02/29 06:40:23;;;;;;;32.57;20.60;;;;;;;2.15;100.00;151919.41;5105598;27;20572;-77
2024/02/29 06:42:50;;;;;;;31.77;19.70;;;;;;;2.22;100.00;151937.44;5125237;27;21460;-77
2024/02/29 06:45:17;;;;;;;37.07;21.30;;;;;;;2.30;100.00;151957.94;5097279;28;20467;-76
2024/02/29 06:47:44;;;;;;;36.87;22.80;;;;;;;2.39;100.00;151979.81;5129900;27;20452;-77
2024/02/29 06:50:11;;;;;;;39.77;22.57;;;;;;;2.48;100.00;152003.00;5079357;28;20445;-77
2024/02/29 06:52:38;;;;;;;42.87;23.23;;;;;;;2.60;100.00;152032.53;5097760;28;20579;-77
2024/02/29 06:55:07;;;;;;;36.87;21.90;;;;;;;2.72;100.00;152063.44;5097489;28;20807;-76
2024/02/29 06:57:34;;;;;;;43.53;23.23;;;;;;;2.84;100.00;152094.28;5096923;27;21223;-76
2024/02/29 07:00:00;;;;;;;41.77;23.37;;;;;;;2.94;100.00;152120.00;5126329;27;20453;-77
2024/02/29 07:02:27;;;;;;;36.70;21.80;;;;;;;3.06;100.00;152150.91;5129561;27;20933;-77
2024/02/29 07:04:54;;;;;;;34.93;20.80;;;;;;;3.21;100.00;152188.22;5078395;28;20560;-76
2024/02/29 07:07:20;;;;;;;37.87;22.90;;;;;;;3.36;100.00;152226.84;5098416;27;20483;-77
2024/02/29 07:09:47;;;;;;;37.93;22.60;;;;;;;3.49;100.00;152261.59;5100152;28;20453;-76
2024/02/29 07:12:15;;;;;;;45.73;24.77;;;;;;;3.60;100.00;152289.88;5097000;28;20590;-76
2024/02/29 07:14:41;;;;;;;43.70;23.27;;;;;;;3.69;100.00;152311.78;5098474;27;21382;-76
2024/02/29 07:17:08;;;;;;;37.30;23.13;;;;;;;3.76;100.00;152329.78;5085042;28;20655;-77
2024/02/29 07:19:34;;;;;;;32.87;21.50;;;;;;;3.81;100.00;152341.41;5081545;28;20455;-76
2024/02/29 07:22:01;;;;;;;30.50;20.57;;;;;;;3.86;100.00;152354.28;5102509;27;20459;-77
2024/02/29 07:24:27;;;;;;;31.90;19.90;;;;;;;3.86;100.00;152354.28;5096494;28;20425;-77
2024/02/29 07:26:56;;;;;;;35.40;21.80;;;;;;;3.98;100.00;152385.16;5093562;28;20467;-77
2024/02/29 07:29:24;;;;;;;34.20;20.67;;;;;;;4.13;100.00;152423.84;5098865;27;20523;-77
2024/02/29 07:31:51;;;;;;;31.73;20.67;;;;;;;4.28;100.00;152462.47;5080219;28;20506;-77
2024/02/29 07:34:17;;;;;;;31.97;19.50;;;;;;;4.45;100.00;152506.22;5095887;28;20449;-77
2024/02/29 07:36:44;;;;;;;30.60;20.00;;;;;;;4.59;100.00;152542.31;5099593;28;20803;-77
2024/02/29 07:39:11;;;;;;;30.97;18.13;;;;;;;4.70;100.00;152570.66;5095125;28;20493;-77
2024/02/29 07:41:38;;;;;;;27.07;19.03;;;;;;;4.80;100.00;152596.44;5097783;28;20444;-77
2024/02/29 07:44:04;;;;;;;28.20;17.70;;;;;;;4.93;100.00;152628.63;5129701;27;20521;-77
2024/02/29 07:46:33;;;;;;;30.43;18.87;;;;;;;5.12;100.00;152677.63;5097294;28;20449;-77
2024/02/29 07:48:59;;;;;;;27.17;17.97;;;;;;;5.29;100.00;152720.19;5095799;28;20513;-77
2024/02/29 07:51:26;;;;;;;23.20;16.00;;;;;;;5.36;100.00;152739.50;5096185;28;21333;-77
2024/02/29 07:53:53;;;;;;;24.07;16.43;;;;;;;5.54;100.00;152785.91;5122148;27;20545;-77
2024/02/29 07:56:19;;;;;;;26.87;17.80;;;;;;;5.90;100.00;152877.56;5095551;28;20884;-77
2024/02/29 07:58:47;;;;;;;26.67;18.50;;;;;;;6.25;100.00;152965.28;5096015;28;20452;-78
2024/02/29 08:01:14;;;;;;;26.30;17.10;;;;;;;6.64;98.37;153065.91;5094414;27;20448;-77
2024/02/29 08:03:42;;;;;;;27.43;18.57;;;;;;;6.97;96.69;153151.09;5119055;27;20571;-77
2024/02/29 08:06:08;;;;;;;25.07;16.97;;;;;;;7.19;94.76;153206.63;5095896;28;20858;-77
2024/02/29 08:08:35;;;;;;;26.77;18.57;;;;;;;7.50;93.43;153285.38;5096390;27;20787;-77
2024/02/29 08:11:02;;;;;;;23.47;17.03;;;;;;;7.77;92.07;153356.44;5123758;27;21582;-78
2024/02/29 08:13:28;;;;;;;24.53;16.80;;;;;;;7.97;90.47;153408.09;5096706;28;20483;-77
2024/02/29 08:15:55;;;;;;;22.00;16.40;;;;;;;8.15;89.04;153452.03;5093954;28;20456;-77
2024/02/29 08:18:21;;;;;;;25.17;15.30;;;;;;;8.28;88.38;153487.00;5125077;27;20984;-78
2024/02/29 08:20:49;;;;;;;26.90;17.43;;;;;;;8.31;86.91;153494.72;5090105;28;20453;-78
2024/02/29 08:23:16;;;;;;;29.80;17.67;;;;;;;8.14;86.39;153449.44;5099338;28;20488;-78
2024/02/29 08:25:43;;;;;;;27.03;17.80;;;;;;;7.69;86.64;153334.47;5095698;28;20528;-78
2024/02/29 08:28:09;;;;;;;25.67;17.23;;;;;;;7.39;88.74;153257.00;5095911;28;20506;-78
2024/02/29 08:30:36;;;;;;;24.43;17.40;;;;;;;7.15;89.54;153197.56;5092416;28;20444;-78
2024/02/29 08:33:02;;;;;;;22.87;16.73;;;;;;;7.01;90.96;153160.13;5096238;28;20480;-78
2024/02/29 08:35:29;;;;;;;28.17;17.67;;;;;;;6.93;92.26;153139.47;5095529;28;20457;-78
2024/02/29 08:37:57;;;;;;;25.57;17.10;;;;;;;6.84;92.96;153116.22;5089737;28;20460;-78
2024/02/29 08:40:23;;;;;;;23.50;17.40;;;;;;;6.80;93.40;153105.91;5094879;28;20446;-78
2024/02/29 08:42:51;;;;;;;22.10;16.70;;;;;;;6.74;93.83;153091.72;5095117;28;20455;-77
2024/02/29 08:45:17;;;;;;;25.10;18.23;;;;;;;6.66;94.65;153071.06;5096654;28;20567;-78
2024/02/29 08:47:44;;;;;;;27.40;17.43;;;;;;;6.62;94.96;153062.03;5091634;28;21058;-77
2024/02/29 08:50:11;;;;;;;25.27;18.60;;;;;;;6.62;95.14;153060.72;5096305;28;20449;-79
2024/02/29 08:52:38;;;;;;;21.60;16.53;;;;;;;6.65;96.05;153068.47;5081416;28;20464;-78
2024/02/29 08:55:07;;;;;;;22.73;16.83;;;;;;;6.69;96.22;153078.81;5095535;28;20939;-79
2024/02/29 08:57:34;;;;;;;22.80;17.27;;;;;;;6.74;95.50;153093.03;5114794;27;20460;-77
2024/02/29 09:00:00;;;;;;;27.20;19.73;;;;;;;6.80;94.92;153107.22;5096271;28;20456;-76
2024/02/29 09:02:27;;;;;;;26.13;19.17;;;;;;;6.86;94.26;153121.44;5086210;28;20548;-77
2024/02/29 09:04:54;;;;;;;28.07;17.60;;;;;;;6.97;94.37;153149.78;5096441;28;20446;-77
2024/02/29 09:07:20;;;;;;;30.30;19.00;;;;;;;7.06;93.97;153173.03;5104254;28;20642;-77
2024/02/29 09:09:47;;;;;;;30.43;19.17;;;;;;;7.03;92.00;153166.59;5099086;28;20588;-77
2024/02/29 09:12:17;;;;;;;25.67;18.80;;;;;;;7.06;92.34;153174.34;5096802;27;20486;-77
2024/02/29 09:14:44;;;;;;;25.50;17.50;;;;;;;7.05;93.01;153170.44;5090779;28;20449;-77
2024/02/29 09:17:11;;;;;;;24.50;17.63;;;;;;;7.08;92.15;153179.50;5098112;28;20855;-77
2024/02/29 09:19:37;;;;;;;24.90;16.50;;;;;;;7.20;92.35;153210.47;5099797;28;20452;-77
2024/02/29 09:22:04;;;;;;;27.10;18.33;;;;;;;7.18;92.45;153205.31;5101125;28;20451;-77
2024/02/29 09:24:31;;;;;;;25.00;17.37;;;;;;;7.16;92.78;153200.16;5098267;28;20513;-77
2024/02/29 09:26:57;;;;;;;27.93;17.07;;;;;;;7.18;92.79;153205.31;5101255;28;20816;-77
2024/02/29 09:29:25;;;;;;;25.10;16.73;;;;;;;7.18;92.28;153205.31;5103434;28;20448;-77
2024/02/29 09:31:51;;;;;;;27.27;17.47;;;;;;;7.22;92.39;153215.66;5098108;28;20810;-77
2024/02/29 09:34:18;;;;;;;28.03;18.83;;;;;;;7.30;92.63;153236.34;5096799;28;20540;-77
2024/02/29 09:36:46;;;;;;;26.90;18.00;;;;;;;7.33;92.25;153242.78;5132577;27;20461;-77
2024/02/29 09:39:12;;;;;;;27.30;15.67;;;;;;;7.35;91.89;153249.25;5097586;28;21073;-77
2024/02/29 09:41:39;;;;;;;27.60;19.10;;;;;;;7.45;93.10;153272.47;5098029;28;20480;-77
2024/02/29 09:44:07;;;;;;;30.17;19.53;;;;;;;7.43;93.58;153267.31;5096859;27;20971;-77
2024/02/29 09:46:35;;;;;;;28.00;18.07;;;;;;;7.43;94.79;153267.31;5098852;28;20449;-77
2024/02/29 09:49:04;;;;;;;25.97;17.63;;;;;;;7.41;94.17;153262.16;5098815;28;20447;-77
2024/02/29 09:51:31;;;;;;;26.17;16.67;;;;;;;7.54;93.74;153295.72;5093063;28;21234;-77
2024/02/29 09:53:58;;;;;;;27.43;18.40;;;;;;;7.59;94.15;153308.63;5103606;27;20465;-77
2024/02/29 09:56:25;;;;;;;22.43;16.27;;;;;;;7.62;94.56;153317.69;5095853;28;20448;-77
2024/02/29 09:58:52;;;;;;;26.23;19.93;;;;;;;7.63;94.55;153318.94;5097707;28;20460;-77
2024/02/29 10:01:19;;;;;;;30.33;19.20;;;;;;;7.65;93.93;153325.41;5095201;28;20655;-77
2024/02/29 10:03:47;;;;;;;24.73;17.27;;;;;;;7.73;94.01;153344.81;5112778;27;20465;-77
2024/02/29 10:06:13;;;;;;;27.43;17.30;;;;;;;7.72;94.00;153342.22;5097968;28;20448;-77
2024/02/29 10:08:40;;;;;;;27.67;18.30;;;;;;;7.73;94.59;153344.81;5096041;27;21077;-78
2024/02/29 10:11:07;;;;;;;25.97;17.67;;;;;;;7.79;93.64;153360.28;5096229;27;20505;-77
2024/02/29 10:13:38;;;;;;;24.83;17.20;;;;;;;7.88;93.12;153383.56;5097084;28;20480;-77
2024/02/29 10:16:07;;;;;;;26.07;17.40;;;;;;;7.97;92.88;153406.78;5095289;28;20452;-77
2024/02/29 10:18:33;;;;;;;26.20;16.07;;;;;;;7.99;92.09;153412.00;5098263;28;20471;-77
2024/02/29 10:21:02;;;;;;;26.27;18.80;;;;;;;8.00;91.25;153414.53;5080491;28;20499;-77
2024/02/29 10:23:29;;;;;;;27.37;18.43;;;;;;;8.08;90.57;153435.22;5097044;28;20441;-77
2024/02/29 10:25:56;;;;;;;28.70;19.60;;;;;;;8.14;90.22;153449.44;5096951;28;20445;-77
2024/02/29 10:28:23;;;;;;;23.83;18.30;;;;;;;8.18;90.44;153461.06;5098122;28;21086;-77
2024/02/29 10:30:54;;;;;;;29.13;18.60;;;;;;;8.22;90.57;153471.44;5089505;28;20441;-77
2024/02/29 10:33:21;;;;;;;26.20;17.10;;;;;;;8.31;90.45;153494.72;5128233;27;20473;-78
2024/02/29 10:35:48;;;;;;;29.80;17.60;;;;;;;8.30;88.39;153492.16;5130240;27;20833;-77
2024/02/29 10:38:16;;;;;;;24.93;17.60;;;;;;;8.34;87.92;153502.47;5098297;28;20458;-77
2024/02/29 10:40:43;;;;;;;25.43;17.97;;;;;;;8.25;87.67;153479.19;5096922;28;21316;-77
2024/02/29 10:43:12;;;;;;;24.03;17.37;;;;;;;8.24;88.75;153476.59;5097154;28;20534;-77
2024/02/29 10:45:45;;;;;;;24.93;17.30;;;;;;;8.29;88.78;153489.56;5100012;27;20448;-77
2024/02/29 10:48:16;;;;;;;26.67;17.70;;;;;;;8.23;88.39;153474.03;5093226;28;20488;-77
2024/02/29 10:50:49;;;;;;;24.13;17.80;;;;;;;8.28;87.98;153487.00;5094571;27;20457;-77
2024/02/29 10:53:24;;;;;;;27.17;18.40;;;;;;;8.26;88.14;153480.50;5126422;27;20485;-77
2024/02/29 10:55:57;;;;;;;24.70;17.07;;;;;;;8.29;88.71;153489.56;5096113;28;20438;-77
2024/02/29 10:58:29;;;;;;;26.93;17.80;;;;;;;8.39;88.69;153515.38;5119213;27;20553;-77
2024/02/29 11:00:55;;;;;;;23.63;16.27;;;;;;;8.38;86.55;153512.84;5095951;28;20449;-77
2024/02/29 11:03:22;;;;;;;23.10;16.87;;;;;;;8.43;86.47;153524.47;5094880;28;20465;-77
2024/02/29 11:05:49;;;;;;;23.73;16.37;;;;;;;8.57;86.55;153560.66;5077904;28;20480;-77
2024/02/29 11:08:18;;;;;;;26.13;16.10;;;;;;;8.68;86.28;153587.81;5096725;28;20485;-77
2024/02/29 11:10:47;;;;;;;22.27;13.47;;;;;;;8.68;86.02;153587.81;5130004;27;20449;-77